sensor_id;sensor_type;location;lat;lon;timestamp;P1;durP1;ratioP1;P2;durP2;ratioP2
58496;SDS011;44284;51.310;16.904;2023-04-24T00:00:58;13.35;;;9.00;;
58496;SDS011;44284;51.310;16.904;2023-04-24T00:03:26;12.15;;;9.43;;
58496;SDS011;44284;51.310;16.904;2023-04-24T00:05:53;16.25;;;9.82;;
58496;SDS011;44284;51.310;16.904;2023-04-24T00:08:19;15.10;;;9.95;;
58496;SDS011;44284;51.310;16.904;2023-04-24T00:10:45;13.07;;;10.43;;
58496;SDS011;44284;51.310;16.904;2023-04-24T00:13:11;16.17;;;10.73;;
58496;SDS011;44284;51.310;16.904;2023-04-24T00:15:37;15.90;;;11.23;;
58496;SDS011;44284;51.310;16.904;2023-04-24T00:18:03;15.73;;;11.75;;
58496;SDS011;44284;51.310;16.904;2023-04-24T00:20:29;17.27;;;13.05;;
58496;SDS011;44284;51.310;16.904;2023-04-24T00:22:57;17.98;;;12.45;;
58496;SDS011;44284;51.310;16.904;2023-04-24T00:25:23;14.77;;;12.10;;
58496;SDS011;44284;51.310;16.904;2023-04-24T00:27:49;15.45;;;11.90;;
58496;SDS011;44284;51.310;16.904;2023-04-24T00:30:15;16.52;;;12.82;;
58496;SDS011;44284;51.310;16.904;2023-04-24T00:32:41;17.92;;;13.90;;
58496;SDS011;44284;51.310;16.904;2023-04-24T00:35:08;17.38;;;14.57;;
58496;SDS011;44284;51.310;16.904;2023-04-24T00:37:34;20.92;;;16.10;;
58496;SDS011;44284;51.310;16.904;2023-04-24T00:40:00;19.58;;;16.05;;
58496;SDS011;44284;51.310;16.904;2023-04-24T00:42:27;22.65;;;16.48;;
58496;SDS011;44284;51.310;16.904;2023-04-24T00:44:53;23.10;;;16.38;;
58496;SDS011;44284;51.310;16.904;2023-04-24T00:47:19;20.88;;;16.23;;
58496;SDS011;44284;51.310;16.904;2023-04-24T00:49:46;22.00;;;17.13;;
58496;SDS011;44284;51.310;16.904;2023-04-24T00:52:12;20.70;;;17.25;;
58496;SDS011;44284;51.310;16.904;2023-04-24T00:54:42;19.95;;;16.55;;
58496;SDS011;44284;51.310;16.904;2023-04-24T00:57:09;21.45;;;16.75;;
58496;SDS011;44284;51.310;16.904;2023-04-24T00:59:36;21.13;;;17.20;;
58496;SDS011;44284;51.310;16.904;2023-04-24T01:02:02;20.40;;;16.02;;
58496;SDS011;44284;51.310;16.904;2023-04-24T01:04:28;20.48;;;15.70;;
58496;SDS011;44284;51.310;16.904;2023-04-24T01:06:54;19.92;;;15.98;;
58496;SDS011;44284;51.310;16.904;2023-04-24T01:09:21;19.63;;;15.52;;
58496;SDS011;44284;51.310;16.904;2023-04-24T01:11:49;21.35;;;15.98;;
58496;SDS011;44284;51.310;16.904;2023-04-24T01:14:15;20.27;;;14.57;;
58496;SDS011;44284;51.310;16.904;2023-04-24T01:16:42;20.08;;;15.00;;
58496;SDS011;44284;51.310;16.904;2023-04-24T01:19:08;22.33;;;15.43;;
58496;SDS011;44284;51.310;16.904;2023-04-24T01:21:36;18.98;;;15.15;;
58496;SDS011;44284;51.310;16.904;2023-04-24T01:24:03;22.05;;;16.33;;
58496;SDS011;44284;51.310;16.904;2023-04-24T01:26:29;20.83;;;16.33;;
58496;SDS011;44284;51.310;16.904;2023-04-24T01:28:56;21.05;;;16.95;;
58496;SDS011;44284;51.310;16.904;2023-04-24T01:31:22;24.73;;;17.02;;
58496;SDS011;44284;51.310;16.904;2023-04-24T01:33:49;21.10;;;16.05;;
58496;SDS011;44284;51.310;16.904;2023-04-24T01:36:15;22.23;;;16.67;;
58496;SDS011;44284;51.310;16.904;2023-04-24T01:38:42;22.52;;;16.50;;
58496;SDS011;44284;51.310;16.904;2023-04-24T01:41:08;24.98;;;17.02;;
58496;SDS011;44284;51.310;16.904;2023-04-24T01:43:34;21.83;;;18.48;;
58496;SDS011;44284;51.310;16.904;2023-04-24T01:46:00;23.33;;;18.65;;
58496;SDS011;44284;51.310;16.904;2023-04-24T01:48:26;24.70;;;20.17;;
58496;SDS011;44284;51.310;16.904;2023-04-24T01:50:52;26.88;;;20.00;;
58496;SDS011;44284;51.310;16.904;2023-04-24T01:53:19;24.73;;;19.35;;
58496;SDS011;44284;51.310;16.904;2023-04-24T01:55:45;24.75;;;19.30;;
58496;SDS011;44284;51.310;16.904;2023-04-24T01:58:11;25.30;;;19.60;;
58496;SDS011;44284;51.310;16.904;2023-04-24T02:00:37;25.88;;;19.05;;
58496;SDS011;44284;51.310;16.904;2023-04-24T02:03:03;24.27;;;18.67;;
58496;SDS011;44284;51.310;16.904;2023-04-24T02:05:29;22.30;;;18.73;;
58496;SDS011;44284;51.310;16.904;2023-04-24T02:07:55;23.92;;;17.67;;
58496;SDS011;44284;51.310;16.904;2023-04-24T02:10:21;23.95;;;18.00;;
58496;SDS011;44284;51.310;16.904;2023-04-24T02:12:47;22.05;;;18.13;;
58496;SDS011;44284;51.310;16.904;2023-04-24T02:15:13;21.23;;;18.08;;
58496;SDS011;44284;51.310;16.904;2023-04-24T02:17:40;20.67;;;17.23;;
58496;SDS011;44284;51.310;16.904;2023-04-24T02:20:06;24.58;;;18.35;;
58496;SDS011;44284;51.310;16.904;2023-04-24T02:22:32;21.85;;;17.08;;
58496;SDS011;44284;51.310;16.904;2023-04-24T02:24:58;20.98;;;16.45;;
58496;SDS011;44284;51.310;16.904;2023-04-24T02:27:25;21.55;;;17.17;;
58496;SDS011;44284;51.310;16.904;2023-04-24T02:29:51;22.88;;;17.80;;
58496;SDS011;44284;51.310;16.904;2023-04-24T02:32:17;23.60;;;17.08;;
58496;SDS011;44284;51.310;16.904;2023-04-24T02:34:43;22.70;;;17.48;;
58496;SDS011;44284;51.310;16.904;2023-04-24T02:37:09;24.35;;;18.13;;
58496;SDS011;44284;51.310;16.904;2023-04-24T02:39:35;21.83;;;16.70;;
58496;SDS011;44284;51.310;16.904;2023-04-24T02:42:01;25.30;;;18.63;;
58496;SDS011;44284;51.310;16.904;2023-04-24T02:44:27;22.85;;;18.67;;
58496;SDS011;44284;51.310;16.904;2023-04-24T02:46:53;22.13;;;18.05;;
58496;SDS011;44284;51.310;16.904;2023-04-24T02:49:20;24.55;;;18.65;;
58496;SDS011;44284;51.310;16.904;2023-04-24T02:51:46;24.50;;;18.48;;
58496;SDS011;44284;51.310;16.904;2023-04-24T02:54:12;26.88;;;19.10;;
58496;SDS011;44284;51.310;16.904;2023-04-24T02:56:38;23.42;;;18.90;;
58496;SDS011;44284;51.310;16.904;2023-04-24T02:59:04;23.83;;;18.75;;
58496;SDS011;44284;51.310;16.904;2023-04-24T03:01:30;24.55;;;20.13;;
58496;SDS011;44284;51.310;16.904;2023-04-24T03:03:56;21.90;;;18.58;;
58496;SDS011;44284;51.310;16.904;2023-04-24T03:06:23;23.95;;;19.00;;
58496;SDS011;44284;51.310;16.904;2023-04-24T03:08:49;25.73;;;18.45;;
58496;SDS011;44284;51.310;16.904;2023-04-24T03:11:15;23.45;;;18.38;;
58496;SDS011;44284;51.310;16.904;2023-04-24T03:13:41;21.95;;;17.50;;
58496;SDS011;44284;51.310;16.904;2023-04-24T03:16:07;22.80;;;17.30;;
58496;SDS011;44284;51.310;16.904;2023-04-24T03:18:33;22.35;;;17.60;;
58496;SDS011;44284;51.310;16.904;2023-04-24T03:20:59;22.83;;;17.98;;
58496;SDS011;44284;51.310;16.904;2023-04-24T03:23:26;22.75;;;17.42;;
58496;SDS011;44284;51.310;16.904;2023-04-24T03:25:52;22.08;;;18.17;;
58496;SDS011;44284;51.310;16.904;2023-04-24T03:28:19;21.25;;;16.08;;
58496;SDS011;44284;51.310;16.904;2023-04-24T03:30:45;23.88;;;17.45;;
58496;SDS011;44284;51.310;16.904;2023-04-24T03:33:11;21.13;;;17.25;;
58496;SDS011;44284;51.310;16.904;2023-04-24T03:35:37;21.92;;;16.77;;
58496;SDS011;44284;51.310;16.904;2023-04-24T03:38:03;20.67;;;16.70;;
58496;SDS011;44284;51.310;16.904;2023-04-24T03:40:30;22.48;;;17.33;;
58496;SDS011;44284;51.310;16.904;2023-04-24T03:42:58;19.58;;;16.73;;
58496;SDS011;44284;51.310;16.904;2023-04-24T03:45:24;21.45;;;16.45;;
58496;SDS011;44284;51.310;16.904;2023-04-24T03:47:50;21.88;;;16.27;;
58496;SDS011;44284;51.310;16.904;2023-04-24T03:50:16;21.13;;;16.35;;
58496;SDS011;44284;51.310;16.904;2023-04-24T03:52:42;22.02;;;16.63;;
58496;SDS011;44284;51.310;16.904;2023-04-24T03:55:08;22.02;;;17.17;;
58496;SDS011;44284;51.310;16.904;2023-04-24T03:57:37;23.23;;;17.35;;
58496;SDS011;44284;51.310;16.904;2023-04-24T04:00:04;21.27;;;16.17;;
58496;SDS011;44284;51.310;16.904;2023-04-24T04:02:30;21.63;;;16.95;;
58496;SDS011;44284;51.310;16.904;2023-04-24T04:04:56;22.40;;;16.77;;
58496;SDS011;44284;51.310;16.904;2023-04-24T04:07:22;21.50;;;16.15;;
58496;SDS011;44284;51.310;16.904;2023-04-24T04:09:48;19.55;;;16.23;;
58496;SDS011;44284;51.310;16.904;2023-04-24T04:12:14;21.38;;;16.08;;
58496;SDS011;44284;51.310;16.904;2023-04-24T04:14:40;22.02;;;16.30;;
58496;SDS011;44284;51.310;16.904;2023-04-24T04:17:06;19.35;;;16.33;;
58496;SDS011;44284;51.310;16.904;2023-04-24T04:19:32;21.67;;;17.35;;
58496;SDS011;44284;51.310;16.904;2023-04-24T04:21:59;19.77;;;16.15;;
58496;SDS011;44284;51.310;16.904;2023-04-24T04:24:25;20.90;;;16.67;;
58496;SDS011;44284;51.310;16.904;2023-04-24T04:26:51;23.92;;;16.88;;
58496;SDS011;44284;51.310;16.904;2023-04-24T04:29:21;20.35;;;16.23;;
58496;SDS011;44284;51.310;16.904;2023-04-24T04:31:47;20.65;;;15.75;;
58496;SDS011;44284;51.310;16.904;2023-04-24T04:34:13;22.50;;;15.77;;
58496;SDS011;44284;51.310;16.904;2023-04-24T04:36:40;19.10;;;15.95;;
58496;SDS011;44284;51.310;16.904;2023-04-24T04:39:06;22.83;;;16.75;;
58496;SDS011;44284;51.310;16.904;2023-04-24T04:41:33;20.55;;;16.45;;
58496;SDS011;44284;51.310;16.904;2023-04-24T04:44:05;21.77;;;16.30;;
58496;SDS011;44284;51.310;16.904;2023-04-24T04:46:31;23.23;;;16.55;;
58496;SDS011;44284;51.310;16.904;2023-04-24T04:48:59;23.60;;;16.75;;
58496;SDS011;44284;51.310;16.904;2023-04-24T04:51:25;20.75;;;16.48;;
58496;SDS011;44284;51.310;16.904;2023-04-24T04:53:51;21.00;;;16.05;;
58496;SDS011;44284;51.310;16.904;2023-04-24T04:56:17;19.33;;;16.27;;
58496;SDS011;44284;51.310;16.904;2023-04-24T04:58:43;23.23;;;16.50;;
58496;SDS011;44284;51.310;16.904;2023-04-24T05:01:09;22.25;;;16.75;;
58496;SDS011;44284;51.310;16.904;2023-04-24T05:03:35;22.20;;;15.95;;
58496;SDS011;44284;51.310;16.904;2023-04-24T05:06:01;19.23;;;15.48;;
58496;SDS011;44284;51.310;16.904;2023-04-24T05:08:27;19.98;;;15.25;;
58496;SDS011;44284;51.310;16.904;2023-04-24T05:10:54;18.50;;;15.20;;
58496;SDS011;44284;51.310;16.904;2023-04-24T05:13:20;20.90;;;15.70;;
58496;SDS011;44284;51.310;16.904;2023-04-24T05:15:46;18.45;;;15.50;;
58496;SDS011;44284;51.310;16.904;2023-04-24T05:18:12;22.15;;;14.68;;
58496;SDS011;44284;51.310;16.904;2023-04-24T05:20:38;21.55;;;16.13;;
58496;SDS011;44284;51.310;16.904;2023-04-24T05:23:04;22.75;;;15.63;;
58496;SDS011;44284;51.310;16.904;2023-04-24T05:25:30;20.48;;;15.57;;
58496;SDS011;44284;51.310;16.904;2023-04-24T05:28:00;24.10;;;15.45;;
58496;SDS011;44284;51.310;16.904;2023-04-24T05:30:26;18.83;;;14.95;;
58496;SDS011;44284;51.310;16.904;2023-04-24T05:32:52;17.88;;;14.52;;
58496;SDS011;44284;51.310;16.904;2023-04-24T05:35:18;19.85;;;14.52;;
58496;SDS011;44284;51.310;16.904;2023-04-24T05:37:44;19.45;;;13.95;;
58496;SDS011;44284;51.310;16.904;2023-04-24T05:40:10;18.05;;;14.43;;
58496;SDS011;44284;51.310;16.904;2023-04-24T05:42:37;18.58;;;14.02;;
58496;SDS011;44284;51.310;16.904;2023-04-24T05:45:03;17.17;;;13.80;;
58496;SDS011;44284;51.310;16.904;2023-04-24T05:47:29;19.00;;;15.10;;
58496;SDS011;44284;51.310;16.904;2023-04-24T05:49:55;18.92;;;15.55;;
58496;SDS011;44284;51.310;16.904;2023-04-24T05:52:21;17.40;;;14.70;;
58496;SDS011;44284;51.310;16.904;2023-04-24T05:54:47;19.70;;;14.55;;
58496;SDS011;44284;51.310;16.904;2023-04-24T05:57:13;23.63;;;15.95;;
58496;SDS011;44284;51.310;16.904;2023-04-24T05:59:40;21.38;;;15.88;;
58496;SDS011;44284;51.310;16.904;2023-04-24T06:02:06;17.42;;;14.98;;
58496;SDS011;44284;51.310;16.904;2023-04-24T06:04:32;19.92;;;15.48;;
58496;SDS011;44284;51.310;16.904;2023-04-24T06:06:59;19.45;;;14.65;;
58496;SDS011;44284;51.310;16.904;2023-04-24T06:09:25;20.90;;;15.48;;
58496;SDS011;44284;51.310;16.904;2023-04-24T06:11:51;19.25;;;15.60;;
58496;SDS011;44284;51.310;16.904;2023-04-24T06:14:18;21.48;;;16.50;;
58496;SDS011;44284;51.310;16.904;2023-04-24T06:16:44;20.27;;;16.67;;
58496;SDS011;44284;51.310;16.904;2023-04-24T06:19:10;23.05;;;16.90;;
58496;SDS011;44284;51.310;16.904;2023-04-24T06:21:36;21.38;;;17.10;;
58496;SDS011;44284;51.310;16.904;2023-04-24T06:24:02;23.80;;;17.58;;
58496;SDS011;44284;51.310;16.904;2023-04-24T06:26:29;23.33;;;17.55;;
58496;SDS011;44284;51.310;16.904;2023-04-24T06:28:55;21.48;;;17.05;;
58496;SDS011;44284;51.310;16.904;2023-04-24T06:31:23;21.52;;;15.85;;
58496;SDS011;44284;51.310;16.904;2023-04-24T06:33:49;24.85;;;17.52;;
58496;SDS011;44284;51.310;16.904;2023-04-24T06:36:15;22.40;;;16.92;;
58496;SDS011;44284;51.310;16.904;2023-04-24T06:38:41;22.55;;;17.10;;
58496;SDS011;44284;51.310;16.904;2023-04-24T06:41:07;21.15;;;16.13;;
58496;SDS011;44284;51.310;16.904;2023-04-24T06:43:33;20.30;;;16.65;;
58496;SDS011;44284;51.310;16.904;2023-04-24T06:45:59;23.52;;;16.17;;
58496;SDS011;44284;51.310;16.904;2023-04-24T06:48:25;21.63;;;16.42;;
58496;SDS011;44284;51.310;16.904;2023-04-24T06:50:52;20.58;;;16.90;;
58496;SDS011;44284;51.310;16.904;2023-04-24T06:53:18;22.58;;;16.98;;
58496;SDS011;44284;51.310;16.904;2023-04-24T06:55:44;20.73;;;16.90;;
58496;SDS011;44284;51.310;16.904;2023-04-24T06:58:11;20.40;;;16.73;;
58496;SDS011;44284;51.310;16.904;2023-04-24T07:00:37;21.20;;;16.83;;
58496;SDS011;44284;51.310;16.904;2023-04-24T07:03:04;20.00;;;16.17;;
58496;SDS011;44284;51.310;16.904;2023-04-24T07:05:30;20.42;;;15.63;;
58496;SDS011;44284;51.310;16.904;2023-04-24T07:07:58;20.38;;;15.18;;
58496;SDS011;44284;51.310;16.904;2023-04-24T07:10:25;16.58;;;13.60;;
58496;SDS011;44284;51.310;16.904;2023-04-24T07:12:54;19.45;;;13.05;;
58496;SDS011;44284;51.310;16.904;2023-04-24T07:15:21;14.98;;;12.38;;
58496;SDS011;44284;51.310;16.904;2023-04-24T07:17:47;15.98;;;12.65;;
58496;SDS011;44284;51.310;16.904;2023-04-24T07:20:13;15.32;;;11.88;;
58496;SDS011;44284;51.310;16.904;2023-04-24T07:22:39;13.63;;;11.18;;
58496;SDS011;44284;51.310;16.904;2023-04-24T07:25:06;16.75;;;12.85;;
58496;SDS011;44284;51.310;16.904;2023-04-24T07:27:33;15.10;;;10.23;;
58496;SDS011;44284;51.310;16.904;2023-04-24T07:29:59;11.35;;;10.02;;
58496;SDS011;44284;51.310;16.904;2023-04-24T07:32:25;15.63;;;10.65;;
58496;SDS011;44284;51.310;16.904;2023-04-24T07:34:51;13.40;;;10.52;;
58496;SDS011;44284;51.310;16.904;2023-04-24T07:37:17;11.43;;;9.57;;
58496;SDS011;44284;51.310;16.904;2023-04-24T07:39:43;11.43;;;8.95;;
58496;SDS011;44284;51.310;16.904;2023-04-24T07:42:10;11.65;;;9.52;;
58496;SDS011;44284;51.310;16.904;2023-04-24T07:44:36;10.82;;;9.23;;
58496;SDS011;44284;51.310;16.904;2023-04-24T07:47:02;10.75;;;9.30;;
58496;SDS011;44284;51.310;16.904;2023-04-24T07:49:28;12.00;;;9.30;;
58496;SDS011;44284;51.310;16.904;2023-04-24T07:51:54;10.82;;;9.30;;
58496;SDS011;44284;51.310;16.904;2023-04-24T07:54:20;12.02;;;8.77;;
58496;SDS011;44284;51.310;16.904;2023-04-24T07:56:46;12.88;;;9.00;;
58496;SDS011;44284;51.310;16.904;2023-04-24T07:59:12;11.65;;;9.23;;
58496;SDS011;44284;51.310;16.904;2023-04-24T08:01:38;9.95;;;8.27;;
58496;SDS011;44284;51.310;16.904;2023-04-24T08:04:04;12.40;;;9.52;;
58496;SDS011;44284;51.310;16.904;2023-04-24T08:06:30;13.43;;;9.40;;
58496;SDS011;44284;51.310;16.904;2023-04-24T08:08:57;12.35;;;9.02;;
58496;SDS011;44284;51.310;16.904;2023-04-24T08:11:23;11.88;;;9.05;;
58496;SDS011;44284;51.310;16.904;2023-04-24T08:13:49;12.60;;;9.60;;
58496;SDS011;44284;51.310;16.904;2023-04-24T08:16:16;12.43;;;9.75;;
58496;SDS011;44284;51.310;16.904;2023-04-24T08:18:42;10.60;;;8.18;;
58496;SDS011;44284;51.310;16.904;2023-04-24T08:21:08;10.15;;;8.40;;
58496;SDS011;44284;51.310;16.904;2023-04-24T08:23:34;11.38;;;8.25;;
58496;SDS011;44284;51.310;16.904;2023-04-24T08:26:00;10.40;;;7.93;;
58496;SDS011;44284;51.310;16.904;2023-04-24T08:28:26;9.60;;;7.47;;
58496;SDS011;44284;51.310;16.904;2023-04-24T08:30:52;10.73;;;7.85;;
58496;SDS011;44284;51.310;16.904;2023-04-24T08:33:23;11.02;;;9.07;;
58496;SDS011;44284;51.310;16.904;2023-04-24T08:35:49;9.93;;;8.93;;
58496;SDS011;44284;51.310;16.904;2023-04-24T08:38:15;12.45;;;10.35;;
58496;SDS011;44284;51.310;16.904;2023-04-24T08:40:42;11.85;;;9.55;;
58496;SDS011;44284;51.310;16.904;2023-04-24T08:43:10;11.23;;;9.60;;
58496;SDS011;44284;51.310;16.904;2023-04-24T08:45:38;11.70;;;9.45;;
58496;SDS011;44284;51.310;16.904;2023-04-24T08:48:04;11.77;;;9.35;;
58496;SDS011;44284;51.310;16.904;2023-04-24T08:50:31;9.93;;;8.02;;
58496;SDS011;44284;51.310;16.904;2023-04-24T08:52:57;11.30;;;8.93;;
58496;SDS011;44284;51.310;16.904;2023-04-24T08:55:24;11.90;;;9.02;;
58496;SDS011;44284;51.310;16.904;2023-04-24T08:57:51;11.02;;;9.48;;
58496;SDS011;44284;51.310;16.904;2023-04-24T09:00:21;10.02;;;8.70;;
58496;SDS011;44284;51.310;16.904;2023-04-24T09:02:48;13.35;;;9.43;;
58496;SDS011;44284;51.310;16.904;2023-04-24T09:05:16;10.20;;;8.45;;
58496;SDS011;44284;51.310;16.904;2023-04-24T09:07:44;11.40;;;9.05;;
58496;SDS011;44284;51.310;16.904;2023-04-24T09:10:11;9.63;;;8.60;;
58496;SDS011;44284;51.310;16.904;2023-04-24T09:12:37;12.23;;;9.25;;
58496;SDS011;44284;51.310;16.904;2023-04-24T09:15:03;11.90;;;8.63;;
58496;SDS011;44284;51.310;16.904;2023-04-24T09:17:30;9.90;;;8.10;;
58496;SDS011;44284;51.310;16.904;2023-04-24T09:19:56;10.38;;;8.10;;
58496;SDS011;44284;51.310;16.904;2023-04-24T09:22:22;13.02;;;8.50;;
58496;SDS011;44284;51.310;16.904;2023-04-24T09:24:49;9.93;;;7.72;;
58496;SDS011;44284;51.310;16.904;2023-04-24T09:27:25;10.07;;;7.80;;
58496;SDS011;44284;51.310;16.904;2023-04-24T09:29:57;10.40;;;7.95;;
58496;SDS011;44284;51.310;16.904;2023-04-24T09:32:23;9.15;;;7.78;;
58496;SDS011;44284;51.310;16.904;2023-04-24T09:35:07;10.48;;;8.48;;
58496;SDS011;44284;51.310;16.904;2023-04-24T09:37:41;9.63;;;8.25;;
58496;SDS011;44284;51.310;16.904;2023-04-24T09:40:11;12.13;;;8.02;;
58496;SDS011;44284;51.310;16.904;2023-04-24T09:42:37;12.82;;;8.25;;
58496;SDS011;44284;51.310;16.904;2023-04-24T09:45:04;11.60;;;8.00;;
58496;SDS011;44284;51.310;16.904;2023-04-24T09:47:37;10.73;;;8.27;;
58496;SDS011;44284;51.310;16.904;2023-04-24T09:50:10;11.55;;;8.32;;
58496;SDS011;44284;51.310;16.904;2023-04-24T09:52:39;11.82;;;8.25;;
58496;SDS011;44284;51.310;16.904;2023-04-24T09:55:17;11.15;;;8.30;;
58496;SDS011;44284;51.310;16.904;2023-04-24T09:58:01;8.45;;;7.15;;
58496;SDS011;44284;51.310;16.904;2023-04-24T10:00:31;10.43;;;8.00;;
58496;SDS011;44284;51.310;16.904;2023-04-24T10:05:27;8.80;;;6.90;;
58496;SDS011;44284;51.310;16.904;2023-04-24T10:07:57;9.70;;;7.18;;
58496;SDS011;44284;51.310;16.904;2023-04-24T10:10:23;9.40;;;7.03;;
58496;SDS011;44284;51.310;16.904;2023-04-24T10:12:50;8.98;;;6.70;;
58496;SDS011;44284;51.310;16.904;2023-04-24T10:15:16;10.52;;;7.50;;
58496;SDS011;44284;51.310;16.904;2023-04-24T10:17:47;9.07;;;7.03;;
58496;SDS011;44284;51.310;16.904;2023-04-24T10:20:17;7.75;;;6.53;;
58496;SDS011;44284;51.310;16.904;2023-04-24T10:22:44;8.75;;;6.40;;
58496;SDS011;44284;51.310;16.904;2023-04-24T10:25:11;8.93;;;5.88;;
58496;SDS011;44284;51.310;16.904;2023-04-24T10:27:37;9.35;;;6.95;;
58496;SDS011;44284;51.310;16.904;2023-04-24T10:30:05;9.02;;;6.60;;
58496;SDS011;44284;51.310;16.904;2023-04-24T10:32:31;10.07;;;7.50;;
58496;SDS011;44284;51.310;16.904;2023-04-24T10:34:57;9.77;;;7.45;;
58496;SDS011;44284;51.310;16.904;2023-04-24T10:37:23;11.65;;;8.32;;
58496;SDS011;44284;51.310;16.904;2023-04-24T10:39:50;10.18;;;7.78;;
58496;SDS011;44284;51.310;16.904;2023-04-24T10:42:19;11.48;;;8.48;;
58496;SDS011;44284;51.310;16.904;2023-04-24T10:44:47;10.77;;;8.73;;
58496;SDS011;44284;51.310;16.904;2023-04-24T10:47:14;9.88;;;8.48;;
58496;SDS011;44284;51.310;16.904;2023-04-24T10:49:40;10.35;;;8.80;;
58496;SDS011;44284;51.310;16.904;2023-04-24T10:52:06;10.90;;;8.68;;
58496;SDS011;44284;51.310;16.904;2023-04-24T10:54:41;11.35;;;8.75;;
58496;SDS011;44284;51.310;16.904;2023-04-24T10:59:52;11.05;;;8.30;;
58496;SDS011;44284;51.310;16.904;2023-04-24T11:02:37;10.45;;;8.63;;
58496;SDS011;44284;51.310;16.904;2023-04-24T11:05:03;12.73;;;9.45;;
58496;SDS011;44284;51.310;16.904;2023-04-24T11:07:30;10.05;;;8.55;;
58496;SDS011;44284;51.310;16.904;2023-04-24T11:10:25;11.30;;;8.57;;
58496;SDS011;44284;51.310;16.904;2023-04-24T11:12:52;10.38;;;8.73;;
58496;SDS011;44284;51.310;16.904;2023-04-24T11:15:18;12.13;;;9.10;;
58496;SDS011;44284;51.310;16.904;2023-04-24T11:17:44;13.32;;;9.95;;
58496;SDS011;44284;51.310;16.904;2023-04-24T11:20:11;11.88;;;9.52;;
58496;SDS011;44284;51.310;16.904;2023-04-24T11:22:38;11.18;;;8.98;;
58496;SDS011;44284;51.310;16.904;2023-04-24T11:25:05;10.18;;;8.98;;
58496;SDS011;44284;51.310;16.904;2023-04-24T11:27:38;11.68;;;10.10;;
58496;SDS011;44284;51.310;16.904;2023-04-24T11:30:05;10.70;;;8.90;;
58496;SDS011;44284;51.310;16.904;2023-04-24T11:37:33;13.40;;;10.32;;
58496;SDS011;44284;51.310;16.904;2023-04-24T11:40:00;11.98;;;10.25;;
58496;SDS011;44284;51.310;16.904;2023-04-24T11:42:27;13.35;;;10.13;;
58496;SDS011;44284;51.310;16.904;2023-04-24T11:44:53;10.90;;;9.20;;
58496;SDS011;44284;51.310;16.904;2023-04-24T11:47:28;11.98;;;9.07;;
58496;SDS011;44284;51.310;16.904;2023-04-24T11:49:55;10.65;;;9.02;;
58496;SDS011;44284;51.310;16.904;2023-04-24T11:52:21;12.80;;;9.13;;
58496;SDS011;44284;51.310;16.904;2023-04-24T11:54:50;11.32;;;9.88;;
58496;SDS011;44284;51.310;16.904;2023-04-24T11:57:18;9.50;;;8.25;;
58496;SDS011;44284;51.310;16.904;2023-04-24T11:59:45;11.02;;;8.48;;
58496;SDS011;44284;51.310;16.904;2023-04-24T12:02:24;11.40;;;8.65;;
58496;SDS011;44284;51.310;16.904;2023-04-24T12:04:50;12.68;;;9.70;;
58496;SDS011;44284;51.310;16.904;2023-04-24T12:07:17;13.23;;;9.48;;
58496;SDS011;44284;51.310;16.904;2023-04-24T12:09:43;14.00;;;10.30;;
58496;SDS011;44284;51.310;16.904;2023-04-24T12:12:10;11.23;;;9.48;;
58496;SDS011;44284;51.310;16.904;2023-04-24T12:14:49;12.90;;;10.60;;
58496;SDS011;44284;51.310;16.904;2023-04-24T12:17:16;12.90;;;10.40;;
58496;SDS011;44284;51.310;16.904;2023-04-24T12:19:46;14.00;;;10.88;;
58496;SDS011;44284;51.310;16.904;2023-04-24T12:22:12;12.88;;;10.30;;
58496;SDS011;44284;51.310;16.904;2023-04-24T12:24:57;13.27;;;10.57;;
58496;SDS011;44284;51.310;16.904;2023-04-24T12:27:23;11.75;;;9.27;;
58496;SDS011;44284;51.310;16.904;2023-04-24T12:29:56;11.18;;;9.95;;
58496;SDS011;44284;51.310;16.904;2023-04-24T12:32:22;11.15;;;9.20;;
58496;SDS011;44284;51.310;16.904;2023-04-24T12:34:50;7.97;;;6.55;;
58496;SDS011;44284;51.310;16.904;2023-04-24T12:37:16;9.73;;;6.40;;
58496;SDS011;44284;51.310;16.904;2023-04-24T12:42:45;4.93;;;2.95;;
58496;SDS011;44284;51.310;16.904;2023-04-24T12:45:11;5.40;;;2.10;;
58496;SDS011;44284;51.310;16.904;2023-04-24T12:47:38;3.67;;;2.03;;
58496;SDS011;44284;51.310;16.904;2023-04-24T12:50:05;3.50;;;2.10;;
58496;SDS011;44284;51.310;16.904;2023-04-24T12:52:31;4.03;;;2.20;;
58496;SDS011;44284;51.310;16.904;2023-04-24T12:54:58;5.25;;;2.17;;
58496;SDS011;44284;51.310;16.904;2023-04-24T12:57:25;4.03;;;2.58;;
58496;SDS011;44284;51.310;16.904;2023-04-24T12:59:54;3.17;;;2.08;;
58496;SDS011;44284;51.310;16.904;2023-04-24T13:02:21;3.35;;;2.20;;
58496;SDS011;44284;51.310;16.904;2023-04-24T13:04:47;4.10;;;2.40;;
58496;SDS011;44284;51.310;16.904;2023-04-24T13:07:13;3.08;;;2.10;;
58496;SDS011;44284;51.310;16.904;2023-04-24T13:09:42;4.85;;;2.25;;
58496;SDS011;44284;51.310;16.904;2023-04-24T13:12:09;3.78;;;2.10;;
58496;SDS011;44284;51.310;16.904;2023-04-24T13:14:35;2.95;;;1.92;;
58496;SDS011;44284;51.310;16.904;2023-04-24T13:17:03;4.70;;;2.58;;
58496;SDS011;44284;51.310;16.904;2023-04-24T13:19:29;3.60;;;2.40;;
58496;SDS011;44284;51.310;16.904;2023-04-24T13:21:56;2.70;;;1.70;;
58496;SDS011;44284;51.310;16.904;2023-04-24T13:24:24;2.25;;;1.52;;
58496;SDS011;44284;51.310;16.904;2023-04-24T13:26:51;3.47;;;1.52;;
58496;SDS011;44284;51.310;16.904;2023-04-24T13:29:17;5.68;;;1.63;;
58496;SDS011;44284;51.310;16.904;2023-04-24T13:31:43;3.05;;;1.40;;
58496;SDS011;44284;51.310;16.904;2023-04-24T13:34:09;2.38;;;1.35;;
58496;SDS011;44284;51.310;16.904;2023-04-24T13:36:35;3.42;;;1.35;;
58496;SDS011;44284;51.310;16.904;2023-04-24T13:39:02;2.55;;;1.30;;
58496;SDS011;44284;51.310;16.904;2023-04-24T13:41:34;2.78;;;1.50;;
58496;SDS011;44284;51.310;16.904;2023-04-24T13:44:01;2.25;;;1.40;;
58496;SDS011;44284;51.310;16.904;2023-04-24T13:46:27;1.70;;;1.33;;
58496;SDS011;44284;51.310;16.904;2023-04-24T13:48:53;3.95;;;1.40;;
58496;SDS011;44284;51.310;16.904;2023-04-24T13:51:19;3.08;;;1.23;;
58496;SDS011;44284;51.310;16.904;2023-04-24T13:53:45;2.40;;;1.30;;
58496;SDS011;44284;51.310;16.904;2023-04-24T13:56:11;2.55;;;1.42;;
58496;SDS011;44284;51.310;16.904;2023-04-24T13:58:39;2.20;;;1.27;;
58496;SDS011;44284;51.310;16.904;2023-04-24T14:01:05;1.27;;;1.10;;
58496;SDS011;44284;51.310;16.904;2023-04-24T14:03:32;3.08;;;1.40;;
58496;SDS011;44284;51.310;16.904;2023-04-24T14:05:58;1.85;;;1.10;;
58496;SDS011;44284;51.310;16.904;2023-04-24T14:08:24;2.25;;;1.25;;
58496;SDS011;44284;51.310;16.904;2023-04-24T14:10:50;4.53;;;2.53;;
58496;SDS011;44284;51.310;16.904;2023-04-24T14:13:17;3.03;;;1.70;;
58496;SDS011;44284;51.310;16.904;2023-04-24T14:15:43;5.50;;;2.65;;
58496;SDS011;44284;51.310;16.904;2023-04-24T14:18:09;15.75;;;10.38;;
58496;SDS011;44284;51.310;16.904;2023-04-24T14:20:35;9.98;;;5.38;;
58496;SDS011;44284;51.310;16.904;2023-04-24T14:23:01;4.82;;;3.40;;
58496;SDS011;44284;51.310;16.904;2023-04-24T14:25:28;3.92;;;2.63;;
58496;SDS011;44284;51.310;16.904;2023-04-24T14:27:55;4.05;;;2.08;;